Terminal Aerodrome Forecast
Issued by NWS

Home | Current Version | Previous Version | Text Only | Print | Product List | Glossary On
Versions: 1 2 3 4 5 6 7 8 9 10 11 12 13 14 15 16 17
779
FTUS43 KDVN 201720
TAFBRL
TAF
KBRL 201720Z 2018/2118 21017G26KT P6SM SCT250
     FM210100 21012KT P6SM BKN250
     FM211200 29010KT P6SM BKN150
     FM211600 32015G24KT P6SM SCT250=

USA.gov is the U.S. government's official web portal to all federal, state and local government web resources and services.